createdAt,value
2022-08-09T00:02:28.433Z,67.67
2022-08-09T00:05:03.698Z,66.98
2022-08-09T00:07:44.439Z,66.62
2022-08-09T00:10:18.106Z,67.04
2022-08-09T00:12:52.468Z,67.03
2022-08-09T00:15:26.546Z,67.13
2022-08-09T00:18:06.114Z,67.22
2022-08-09T00:20:42.398Z,67.06
2022-08-09T00:23:55.055Z,66.99
2022-08-09T00:26:04.950Z,67.47
2022-08-09T00:28:32.038Z,67.30
2022-08-09T00:31:30.562Z,67.71
2022-08-09T00:33:51.815Z,67.65
2022-08-09T00:36:19.902Z,67.76
2022-08-09T00:38:46.683Z,67.53
2022-08-09T00:44:10.835Z,67.96
2022-08-09T00:44:14.881Z,67.89
2022-08-09T00:46:56.340Z,68.04
2022-08-09T00:49:24.857Z,68.12
2022-08-09T00:51:56.441Z,68.89
2022-08-09T00:54:31.516Z,69.05
2022-08-09T00:57:10.424Z,68.80
2022-08-09T00:59:41.011Z,69.06
2022-08-09T01:02:14.884Z,68.75
2022-08-09T01:05:05.321Z,68.81
2022-08-09T01:08:00.942Z,69.53
2022-08-09T01:10:39.584Z,69.47
2022-08-09T01:13:18.719Z,69.59
2022-08-09T01:15:52.917Z,69.76
2022-08-09T01:18:29.991Z,69.72
2022-08-09T01:21:17.511Z,69.95
2022-08-09T01:24:27.259Z,69.56
2022-08-09T01:27:23.775Z,70.10
2022-08-09T01:30:02.423Z,70.25
2022-08-09T01:32:36.004Z,70.29
2022-08-09T01:35:28.657Z,69.97
2022-08-09T01:38:08.129Z,70.04
2022-08-09T01:40:42.978Z,70.02
2022-08-09T01:43:11.017Z,70.34
2022-08-09T01:45:44.663Z,70.53
2022-08-09T01:48:16.387Z,71.49
2022-08-09T01:50:48.526Z,71.48
2022-08-09T01:53:29.219Z,71.72
2022-08-09T01:56:09.429Z,71.65
2022-08-09T01:58:37.699Z,71.45
2022-08-09T02:01:05.553Z,71.47
2022-08-09T02:03:36.358Z,71.13
2022-08-09T02:06:06.782Z,71.31
2022-08-09T02:08:57.362Z,71.52
2022-08-09T02:11:42.869Z,71.48
2022-08-09T02:14:15.100Z,71.59
2022-08-09T02:16:59.380Z,71.79
2022-08-09T02:19:43.606Z,71.72
2022-08-09T02:22:19.100Z,71.56
2022-08-09T02:24:58.026Z,71.75
2022-08-09T02:27:58.246Z,71.71
2022-08-09T02:30:15.841Z,72.14
2022-08-09T02:32:48.346Z,72.10
2022-08-09T02:35:46.495Z,71.80
2022-08-09T02:38:10.901Z,72.59
2022-08-09T02:40:58.362Z,72.27
2022-08-09T02:43:28.754Z,72.19
2022-08-09T02:45:57.467Z,72.68
2022-08-09T02:48:30.715Z,73.58
2022-08-09T02:51:01.781Z,74.26
2022-08-09T02:53:35.967Z,73.87
2022-08-09T02:56:04.898Z,73.36
2022-08-09T02:58:37.665Z,73.25
2022-08-09T03:01:07.753Z,73.00
2022-08-09T03:04:12.389Z,72.95
2022-08-09T03:06:27.457Z,73.07
2022-08-09T03:08:56.296Z,73.38
2022-08-09T03:12:04.571Z,73.57
2022-08-09T03:14:12.500Z,73.80
2022-08-09T03:16:45.217Z,73.22
2022-08-09T03:19:52.618Z,73.35
2022-08-09T03:22:12.233Z,73.24
2022-08-09T03:24:52.615Z,73.29
2022-08-09T03:27:45.482Z,73.71
2022-08-09T03:30:14.196Z,73.92
2022-08-09T03:32:59.467Z,73.67
2022-08-09T03:36:11.481Z,73.97
2022-08-09T03:38:28.561Z,74.81
2022-08-09T03:40:55.727Z,75.28
2022-08-09T03:43:22.391Z,75.39
2022-08-09T03:46:05.324Z,74.99
2022-08-09T03:48:37.455Z,74.90
2022-08-09T03:51:57.485Z,74.44
2022-08-09T03:54:06.616Z,74.33
2022-08-09T03:56:41.053Z,74.34
2022-08-09T03:59:17.225Z,74.18
2022-08-09T04:01:50.078Z,74.26
2022-08-09T04:04:17.420Z,74.32
2022-08-09T04:06:48.748Z,74.32
2022-08-09T04:09:47.610Z,74.62
2022-08-09T04:12:11.913Z,75.16
2022-08-09T04:15:01.780Z,75.37
2022-08-09T04:17:30.285Z,75.79
2022-08-09T04:19:57.963Z,75.68
2022-08-09T04:22:29.603Z,75.14
2022-08-09T04:24:58.812Z,75.04
2022-08-09T04:27:25.648Z,75.59
2022-08-09T04:29:56.033Z,75.58
2022-08-09T04:32:31.223Z,75.34
2022-08-09T04:35:01.233Z,75.43
2022-08-09T04:37:45.976Z,74.96
2022-08-09T04:40:28.635Z,74.86
2022-08-09T04:43:00.477Z,75.21
2022-08-09T04:45:30.374Z,75.52
2022-08-09T04:48:04.237Z,76.13
2022-08-09T04:50:38.078Z,76.34
2022-08-09T04:53:13.292Z,76.11
2022-08-09T04:55:58.507Z,75.86
2022-08-09T04:58:32.852Z,75.71
2022-08-09T05:01:02.025Z,75.62
2022-08-09T05:03:40.344Z,75.82
2022-08-09T05:06:11.959Z,76.50
2022-08-09T05:08:59.973Z,76.39
2022-08-09T05:11:32.495Z,76.35
2022-08-09T05:14:05.757Z,76.32
2022-08-09T05:16:33.925Z,76.20
2022-08-09T05:19:10.367Z,76.75
2022-08-09T05:21:47.068Z,76.96
2022-08-09T05:24:18.859Z,77.50
2022-08-09T05:26:47.652Z,77.46
2022-08-09T05:29:21.516Z,77.28
2022-08-09T05:31:57.240Z,77.06
2022-08-09T05:34:30.970Z,77.32
2022-08-09T05:37:05.179Z,76.83
2022-08-09T05:39:43.239Z,76.76
2022-08-09T05:42:17.540Z,77.29
2022-08-09T05:44:52.629Z,77.48
2022-08-09T05:47:21.430Z,75.92
2022-08-09T05:50:25.805Z,77.12
2022-08-09T05:52:36.292Z,77.26
2022-08-09T05:55:07.315Z,77.42
2022-08-09T05:57:50.735Z,77.22
2022-08-09T06:00:22.296Z,77.11
2022-08-09T06:02:49.040Z,76.86
2022-08-09T06:05:20.978Z,77.27
2022-08-09T06:08:08.043Z,76.71
2022-08-09T06:10:38.330Z,76.41
2022-08-09T06:13:12.176Z,76.85
2022-08-09T06:15:46.867Z,76.58
2022-08-09T06:18:14.093Z,76.50
2022-08-09T06:20:42.531Z,75.93
2022-08-09T06:23:11.979Z,76.52
2022-08-09T06:25:43.241Z,76.78
2022-08-09T06:28:10.138Z,76.71
2022-08-09T06:30:40.417Z,76.81
2022-08-09T06:33:30.586Z,76.92
2022-08-09T06:35:58.390Z,77.01
2022-08-09T06:38:32.161Z,77.11
2022-08-09T06:41:18.110Z,77.20
2022-08-09T06:43:47.008Z,76.55
2022-08-09T06:46:40.147Z,76.19
2022-08-09T06:49:01.054Z,75.88
2022-08-09T06:51:27.984Z,75.78
2022-08-09T06:53:55.081Z,75.63
2022-08-09T06:56:21.888Z,74.90
2022-08-09T07:00:50.167Z,73.79
2022-08-09T07:01:54.026Z,73.38
2022-08-09T07:04:24.805Z,73.54
2022-08-09T07:07:00.107Z,73.58
2022-08-09T07:09:55.467Z,73.17
2022-08-09T07:12:18.218Z,72.93
2022-08-09T07:14:51.372Z,72.69
2022-08-09T07:17:20.341Z,72.82
2022-08-09T07:19:50.852Z,72.56
2022-08-09T07:22:27.469Z,71.46
2022-08-09T07:25:05.520Z,71.50
2022-08-09T07:27:42.911Z,71.12
2022-08-09T07:30:24.662Z,72.02
2022-08-09T07:32:51.909Z,71.54
2022-08-09T07:35:19.286Z,70.94
2022-08-09T07:37:47.936Z,71.53
2022-08-09T07:40:20.246Z,71.43
2022-08-09T07:42:59.071Z,70.82
2022-08-09T07:45:40.435Z,76.26
2022-08-09T07:48:25.604Z,74.90
2022-08-09T07:51:09.329Z,73.73
2022-08-09T07:54:07.567Z,74.33
2022-08-09T07:56:49.810Z,73.17
2022-08-09T07:59:34.830Z,73.20
2022-08-09T08:02:05.442Z,70.60
2022-08-09T08:04:33.217Z,69.34
2022-08-09T08:07:15.034Z,70.78
2022-08-09T08:09:55.086Z,68.63
2022-08-09T08:12:35.589Z,68.07
2022-08-09T08:15:04.521Z,68.03
2022-08-09T08:17:52.509Z,67.82
2022-08-09T08:20:29.575Z,68.41
2022-08-09T08:23:01.402Z,67.45
2022-08-09T08:25:44.498Z,67.97
2022-08-09T08:28:14.247Z,68.14
2022-08-09T08:30:41.451Z,67.41
2022-08-09T08:33:11.852Z,67.04
2022-08-09T08:35:58.343Z,67.35
2022-08-09T08:38:28.290Z,66.28
2022-08-09T08:40:56.335Z,65.63
2022-08-09T08:43:24.147Z,63.00
2022-08-09T08:46:10.292Z,61.67
2022-08-09T08:48:51.350Z,62.33
2022-08-09T08:51:18.867Z,60.78
2022-08-09T08:54:02.999Z,60.21
2022-08-09T08:56:36.279Z,60.52
2022-08-09T08:59:19.815Z,59.30
2022-08-09T09:01:52.789Z,59.59
2022-08-09T09:04:27.077Z,59.59
2022-08-09T09:06:58.048Z,57.95
2022-08-09T09:09:58.371Z,58.29
2022-08-09T09:12:16.645Z,56.94
2022-08-09T09:14:44.922Z,55.37
2022-08-09T09:17:12.997Z,56.37
2022-08-09T09:19:43.856Z,56.20
2022-08-09T09:22:15.999Z,55.54
2022-08-09T09:24:43.558Z,54.83
2022-08-09T09:28:03.169Z,54.71
2022-08-09T09:30:14.262Z,54.81
2022-08-09T09:32:43.310Z,54.76
2022-08-09T09:35:15.998Z,54.13
2022-08-09T09:37:46.208Z,53.14
2022-08-09T09:40:13.161Z,51.27
2022-08-09T09:42:43.123Z,52.56
2022-08-09T09:45:14.289Z,50.33
2022-08-09T09:47:58.222Z,50.19
2022-08-09T09:50:50.814Z,48.58
2022-08-09T09:53:25.218Z,47.79
2022-08-09T09:56:20.002Z,48.92
2022-08-09T09:58:57.339Z,46.43
2022-08-09T10:01:31.544Z,45.61
2022-08-09T10:04:12.713Z,44.35
2022-08-09T10:06:46.985Z,45.72
2022-08-09T10:09:22.752Z,45.85
2022-08-09T10:12:11.909Z,45.61
2022-08-09T10:14:47.753Z,43.88
2022-08-09T10:17:40.276Z,43.15
2022-08-09T10:20:05.593Z,42.89
2022-08-09T10:22:41.907Z,43.00
2022-08-09T10:25:12.538Z,42.78
2022-08-09T10:27:57.358Z,44.23
2022-08-09T10:33:29.960Z,42.54
2022-08-09T10:36:00.819Z,42.73
2022-08-09T10:38:54.271Z,41.95
2022-08-09T10:41:16.990Z,41.36
2022-08-09T10:43:59.888Z,42.10
2022-08-09T10:46:57.671Z,41.99
2022-08-09T10:49:50.922Z,41.46
2022-08-09T10:52:42.976Z,41.97
2022-08-09T10:55:29.198Z,40.61
2022-08-09T10:58:37.149Z,40.39
2022-08-09T11:03:06.689Z,40.40
2022-08-09T11:04:28.559Z,39.42
2022-08-09T11:06:59.605Z,39.48
2022-08-09T11:09:38.910Z,36.29
2022-08-09T11:12:18.434Z,36.89
2022-08-09T11:15:01.631Z,37.46
2022-08-09T11:17:31.835Z,36.27
2022-08-09T11:20:10.716Z,36.07
2022-08-09T11:22:56.913Z,36.11
2022-08-09T11:25:44.556Z,36.67
2022-08-09T11:28:34.638Z,35.77
2022-08-09T11:31:43.082Z,37.23
2022-08-09T11:34:27.448Z,35.27
2022-08-09T11:36:56.805Z,36.56
2022-08-09T11:39:24.448Z,35.94
2022-08-09T11:41:53.692Z,34.78
2022-08-09T11:44:44.647Z,33.16
2022-08-09T11:47:14.431Z,34.48
2022-08-09T11:50:53.706Z,34.13
2022-08-09T11:53:58.484Z,35.17
2022-08-09T11:55:53.361Z,35.78
2022-08-09T11:58:33.188Z,34.95
2022-08-09T12:01:00.454Z,33.46
2022-08-09T12:03:55.404Z,34.64
2022-08-09T12:06:26.535Z,34.48
2022-08-09T12:08:57.010Z,35.87
2022-08-09T12:11:27.114Z,34.57
2022-08-09T12:14:10.136Z,35.52
2022-08-09T12:16:44.489Z,35.57
2022-08-09T12:19:13.650Z,34.87
2022-08-09T12:21:50.708Z,34.69
2022-08-09T12:24:24.117Z,34.40
2022-08-09T12:29:11.661Z,33.02
2022-08-09T12:30:01.758Z,31.75
2022-08-09T12:32:41.030Z,30.88
2022-08-09T12:35:10.925Z,30.22
2022-08-09T12:37:50.664Z,30.36
2022-08-09T12:40:21.241Z,29.24
2022-08-09T12:42:50.427Z,29.19
2022-08-09T12:45:34.057Z,28.77
2022-08-09T12:48:20.181Z,28.48
2022-08-09T12:50:57.493Z,28.96
2022-08-09T12:53:36.666Z,29.33
2022-08-09T12:56:15.703Z,28.49
2022-08-09T12:59:11.750Z,28.92
2022-08-09T13:01:49.037Z,29.69
2022-08-09T13:04:37.153Z,28.69
2022-08-09T13:07:19.679Z,27.88
2022-08-09T13:10:02.933Z,27.07
2022-08-09T13:12:30.868Z,28.31
2022-08-09T13:15:09.086Z,29.21
2022-08-09T13:18:03.229Z,29.08
2022-08-09T13:20:37.430Z,28.93
2022-08-09T13:24:17.350Z,29.36
2022-08-09T13:26:05.619Z,30.19
2022-08-09T13:28:36.782Z,28.87
2022-08-09T13:32:17.771Z,27.85
2022-08-09T13:33:56.581Z,26.74
2022-08-09T13:36:40.904Z,26.15
2022-08-09T13:41:54.828Z,26.09
2022-08-09T13:42:04.895Z,25.98
2022-08-09T13:44:32.722Z,24.42
2022-08-09T13:47:16.012Z,23.78
2022-08-09T13:49:56.489Z,23.91
2022-08-09T13:52:26.073Z,23.39
2022-08-09T13:55:00.028Z,23.84
2022-08-09T13:57:40.256Z,24.25
2022-08-09T14:00:28.710Z,23.93
2022-08-09T14:03:02.957Z,22.60
2022-08-09T14:05:59.034Z,22.86
2022-08-09T14:08:30.317Z,23.82
2022-08-09T14:11:00.303Z,22.97
2022-08-09T14:14:22.366Z,24.19
2022-08-09T14:16:17.190Z,24.08
2022-08-09T14:18:49.764Z,23.59
2022-08-09T14:21:22.676Z,24.07
2022-08-09T14:23:55.322Z,24.13
2022-08-09T14:26:32.890Z,23.73
2022-08-09T14:29:46.394Z,24.69
2022-08-09T14:31:58.757Z,25.74
2022-08-09T14:34:33.081Z,25.19
2022-08-09T14:37:07.625Z,25.78
2022-08-09T14:39:45.421Z,25.29
2022-08-09T14:42:30.204Z,25.29
2022-08-09T14:46:39.940Z,24.90
2022-08-09T14:47:58.956Z,25.54
2022-08-09T14:50:31.691Z,25.90
2022-08-09T14:53:02.144Z,25.82
2022-08-09T14:55:32.166Z,25.69
2022-08-09T14:57:59.423Z,25.34
2022-08-09T15:00:27.029Z,26.17
2022-08-09T15:02:58.387Z,26.22
2022-08-09T15:05:26.875Z,26.04
2022-08-09T15:07:56.527Z,26.27
2022-08-09T15:10:25.325Z,26.25
2022-08-09T15:12:53.293Z,26.03
2022-08-09T15:15:20.239Z,25.62
2022-08-09T15:17:52.555Z,24.92
2022-08-09T15:21:55.665Z,24.98
2022-08-09T15:24:02.710Z,25.41
2022-08-09T15:25:57.483Z,24.88
2022-08-09T15:28:27.803Z,23.98
2022-08-09T15:31:07.432Z,22.76
2022-08-09T15:34:31.774Z,22.27
2022-08-09T15:36:30.100Z,21.41
2022-08-09T15:38:58.843Z,21.33
2022-08-09T15:41:32.309Z,21.03
2022-08-09T15:44:03.652Z,20.35
2022-08-09T15:46:32.426Z,20.04
2022-08-09T15:49:20.511Z,20.47
2022-08-09T15:52:03.580Z,20.73
2022-08-09T15:54:44.341Z,20.67
2022-08-09T15:57:13.332Z,20.21
2022-08-09T15:59:40.073Z,20.50
2022-08-09T16:02:09.065Z,20.34
2022-08-09T16:04:40.042Z,20.81
2022-08-09T16:07:11.449Z,20.85
2022-08-09T16:10:02.223Z,21.14
2022-08-09T16:12:30.825Z,21.22
2022-08-09T16:14:57.906Z,20.84
2022-08-09T16:17:24.469Z,21.13
2022-08-09T16:20:04.704Z,20.90
2022-08-09T16:22:36.925Z,21.21
2022-08-09T16:25:10.735Z,21.17
2022-08-09T16:27:38.681Z,21.52
2022-08-09T16:30:15.224Z,21.69
2022-08-09T16:33:11.540Z,21.58
2022-08-09T16:35:57.528Z,21.02
2022-08-09T16:38:26.844Z,21.51
2022-08-09T16:40:53.567Z,21.49
2022-08-09T16:43:22.088Z,21.97
2022-08-09T16:45:53.846Z,21.93
2022-08-09T16:48:50.530Z,22.02
2022-08-09T16:51:14.224Z,22.41
2022-08-09T16:54:09.124Z,21.81
2022-08-09T16:56:31.526Z,22.74
2022-08-09T16:58:59.264Z,24.32
2022-08-09T17:01:28.800Z,23.65
2022-08-09T17:04:00.643Z,24.41
2022-08-09T17:06:31.289Z,24.15
2022-08-09T17:09:09.469Z,24.84
2022-08-09T17:11:44.758Z,25.84
2022-08-09T17:14:27.362Z,25.84
2022-08-09T17:17:01.506Z,25.76
2022-08-09T17:20:12.645Z,26.39
2022-08-09T17:22:24.832Z,27.00
2022-08-09T17:25:03.294Z,27.14
2022-08-09T17:27:33.062Z,26.70
2022-08-09T17:29:59.764Z,27.06
2022-08-09T17:32:37.384Z,26.46
2022-08-09T17:35:11.185Z,25.46
2022-08-09T17:38:10.110Z,26.09
2022-08-09T17:40:26.935Z,26.15
2022-08-09T17:43:03.330Z,26.11
2022-08-09T17:46:02.804Z,25.88
2022-08-09T17:48:29.238Z,26.51
2022-08-09T17:50:59.425Z,26.55
2022-08-09T17:53:43.415Z,27.58
2022-08-09T17:56:19.534Z,28.31
2022-08-09T17:58:47.442Z,28.99
2022-08-09T18:01:22.111Z,29.16
2022-08-09T18:03:49.827Z,29.15
2022-08-09T18:06:31.625Z,29.35
2022-08-09T18:09:06.366Z,30.09
2022-08-09T18:12:05.368Z,29.98
2022-08-09T18:14:22.172Z,30.50
2022-08-09T18:16:49.679Z,30.54
2022-08-09T18:20:55.679Z,30.72
2022-08-09T18:22:03.983Z,31.35
2022-08-09T18:24:31.128Z,31.63
2022-08-09T18:26:57.931Z,31.60
2022-08-09T18:30:38.507Z,31.32
2022-08-09T18:32:14.514Z,31.63
2022-08-09T18:34:45.911Z,32.19
2022-08-09T18:37:47.798Z,32.02
2022-08-09T18:40:01.757Z,32.49
2022-08-09T18:42:29.569Z,32.35
2022-08-09T18:44:56.942Z,32.84
2022-08-09T18:47:24.308Z,32.73
2022-08-09T18:49:54.447Z,33.15
2022-08-09T18:52:24.974Z,33.11
2022-08-09T18:55:01.181Z,33.12
2022-08-09T18:57:43.018Z,34.48
2022-08-09T19:00:19.115Z,34.67
2022-08-09T19:02:47.954Z,34.93
2022-08-09T19:05:24.486Z,34.96
2022-08-09T19:08:09.986Z,35.82
2022-08-09T19:10:39.187Z,36.25
2022-08-09T19:13:22.954Z,36.75
2022-08-09T19:16:01.240Z,37.26
2022-08-09T19:18:36.476Z,37.54
2022-08-09T19:21:09.642Z,37.56
2022-08-09T19:24:33.161Z,37.78
2022-08-09T19:26:31.659Z,37.91
2022-08-09T19:29:09.453Z,38.95
2022-08-09T19:31:46.479Z,39.12
2022-08-09T19:34:21.352Z,39.41
2022-08-09T19:36:50.961Z,39.81
2022-08-09T19:39:17.573Z,40.40
2022-08-09T19:41:48.660Z,40.77
2022-08-09T19:44:20.625Z,40.95
2022-08-09T19:46:50.595Z,41.40
2022-08-09T19:50:08.234Z,41.60
2022-08-09T19:52:08.394Z,41.84
2022-08-09T19:54:35.643Z,42.18
2022-08-09T19:57:03.728Z,42.21
2022-08-09T19:59:59.554Z,42.67
2022-08-09T20:04:09.705Z,42.98
2022-08-09T20:05:11.349Z,43.22
2022-08-09T20:07:59.277Z,43.82
2022-08-09T20:10:34.351Z,43.81
2022-08-09T20:13:03.249Z,43.30
2022-08-09T20:16:35.699Z,43.27
2022-08-09T20:18:20.305Z,42.79
2022-08-09T20:20:51.032Z,43.01
2022-08-09T20:23:20.973Z,42.70
2022-08-09T20:25:52.323Z,43.29
2022-08-09T20:28:34.459Z,42.83
2022-08-09T20:31:11.161Z,43.05
2022-08-09T20:33:44.180Z,43.64
2022-08-09T20:36:11.528Z,44.06
2022-08-09T20:39:17.072Z,43.77
2022-08-09T20:41:35.315Z,44.03
2022-08-09T20:44:09.935Z,44.32
2022-08-09T20:46:44.111Z,44.71
2022-08-09T20:49:13.688Z,44.64
2022-08-09T20:51:41.981Z,44.32
2022-08-09T20:54:12.710Z,45.19
2022-08-09T20:56:44.030Z,45.03
2022-08-09T20:59:16.836Z,44.98
2022-08-09T21:01:51.385Z,45.06
2022-08-09T21:05:52.520Z,45.27
2022-08-09T21:07:11.597Z,45.36
2022-08-09T21:09:42.239Z,45.51
2022-08-09T21:14:48.263Z,46.28
2022-08-09T21:18:23.528Z,46.59
2022-08-09T21:20:17.591Z,46.57
2022-08-09T21:22:52.430Z,46.44
2022-08-09T21:25:39.067Z,46.86
2022-08-09T21:28:12.285Z,46.82
2022-08-09T21:30:42.592Z,47.45
2022-08-09T21:33:09.922Z,47.42
2022-08-09T21:35:39.467Z,47.27
2022-08-09T21:38:21.106Z,47.67
2022-08-09T21:40:58.467Z,48.61
2022-08-09T21:43:46.591Z,48.35
2022-08-09T21:46:12.432Z,48.81
2022-08-09T21:48:42.796Z,48.58
2022-08-09T21:51:24.286Z,49.44
2022-08-09T21:54:02.551Z,49.26
2022-08-09T21:56:43.073Z,50.05
2022-08-09T21:59:11.642Z,49.26
2022-08-09T22:02:00.401Z,49.82
2022-08-09T22:04:55.772Z,50.25
2022-08-09T22:07:35.298Z,49.95
2022-08-09T22:10:01.579Z,50.09
2022-08-09T22:12:30.742Z,49.92
2022-08-09T22:14:58.497Z,50.18
2022-08-09T22:17:25.854Z,50.48
2022-08-09T22:19:58.429Z,49.98
2022-08-09T22:22:27.069Z,49.95
2022-08-09T22:26:08.562Z,51.13
2022-08-09T22:27:40.508Z,51.39
2022-08-09T22:30:07.872Z,51.27
2022-08-09T22:32:34.877Z,51.72
2022-08-09T22:35:06.630Z,51.26
2022-08-09T22:37:40.133Z,52.02
2022-08-09T22:40:10.368Z,51.81
2022-08-09T22:42:44.962Z,51.50
2022-08-09T22:48:13.941Z,51.37
2022-08-09T22:48:16.426Z,51.95
2022-08-09T22:50:52.544Z,53.23
2022-08-09T22:53:19.876Z,52.95
2022-08-09T22:56:30.893Z,53.06
2022-08-09T22:58:33.958Z,53.72
2022-08-09T23:01:05.903Z,53.51
2022-08-09T23:04:04.733Z,54.03
2022-08-09T23:06:35.753Z,54.18
2022-08-09T23:09:04.531Z,54.18
2022-08-09T23:11:31.159Z,54.19
2022-08-09T23:13:59.604Z,54.84
2022-08-09T23:16:26.142Z,54.36
2022-08-09T23:18:52.673Z,54.65
2022-08-09T23:21:25.184Z,55.29
2022-08-09T23:24:04.163Z,55.55
2022-08-09T23:26:37.514Z,55.76
2022-08-09T23:29:11.512Z,55.76
2022-08-09T23:31:38.138Z,55.78
2022-08-09T23:34:05.044Z,56.10
2022-08-09T23:36:33.593Z,56.18
2022-08-09T23:39:00.633Z,56.19
2022-08-09T23:41:29.493Z,56.12
2022-08-09T23:43:58.280Z,56.38
2022-08-09T23:46:24.871Z,56.22
2022-08-09T23:48:51.510Z,56.03
2022-08-09T23:51:18.042Z,55.56
2022-08-09T23:53:44.584Z,55.79
2022-08-09T23:56:12.263Z,55.37
2022-08-09T23:58:38.791Z,55.48
